Time;durP1;ratioP1;P1;durP2;ratioP2;P2;SDS_P1;SDS_P2;PMS_P1;PMS_P2;Temp;Humidity;BMP_temperature;BMP_pressure;BME280_temperature;BME280_humidity;BME280_pressure;Samples;Min_cycle;Max_cycle;Signal;HPM_P1;HPM_P2
2022/05/24 00:01:29;;;;;;;2.30;1.50;;;19.00;61.70;;;;;;4971400;28;20030;-78
2022/05/24 00:03:56;;;;;;;3.75;2.00;;;18.90;61.30;;;;;;4974795;28;20053;-78
2022/05/24 00:06:28;;;;;;;3.65;1.85;;;19.00;61.30;;;;;;4973896;28;20038;-78
2022/05/24 00:08:54;;;;;;;2.00;1.40;;;18.90;61.40;;;;;;4970771;28;20049;-79
2022/05/24 00:11:20;;;;;;;3.65;1.67;;;18.90;61.40;;;;;;4980438;28;20042;-77
2022/05/24 00:13:46;;;;;;;2.90;1.70;;;18.90;61.70;;;;;;4976042;28;20035;-78
2022/05/24 00:16:12;;;;;;;3.05;1.73;;;18.80;61.70;;;;;;4973088;28;20054;-78
2022/05/24 00:18:37;;;;;;;3.03;1.70;;;18.80;61.50;;;;;;4977063;28;20907;-77
2022/05/24 00:21:05;;;;;;;4.60;1.80;;;18.80;61.90;;;;;;4976311;28;20026;-78
2022/05/24 00:23:32;;;;;;;3.85;1.60;;;18.80;62.60;;;;;;4980341;28;20069;-78
2022/05/24 00:26:09;;;;;;;3.38;1.73;;;18.80;62.90;;;;;;4974289;28;20029;-77
2022/05/24 00:28:36;;;;;;;6.47;1.70;;;18.80;62.20;;;;;;4970547;28;20054;-79
2022/05/24 00:31:03;;;;;;;3.22;1.52;;;18.90;62.50;;;;;;4972512;28;20028;-78
2022/05/24 00:33:31;;;;;;;4.28;2.00;;;18.90;62.30;;;;;;4976933;28;20026;-78
2022/05/24 00:35:57;;;;;;;5.68;1.73;;;18.80;62.40;;;;;;4972496;28;20802;-78
2022/05/24 00:38:36;;;;;;;7.85;2.38;;;18.80;62.60;;;;;;4972039;28;20027;-79
2022/05/24 00:41:14;;;;;;;4.47;2.08;;;18.80;62.80;;;;;;4973447;28;20090;-79
2022/05/24 00:44:10;;;;;;;5.30;1.85;;;18.90;62.40;;;;;;4977261;28;20035;-78
2022/05/24 00:46:44;;;;;;;8.55;1.77;;;18.90;62.60;;;;;;4979987;28;20034;-78
2022/05/24 00:49:14;;;;;;;3.58;1.70;;;18.90;62.90;;;;;;4974665;28;20067;-77
2022/05/24 00:51:49;;;;;;;5.28;1.85;;;18.90;63.50;;;;;;4972779;28;20041;-78
2022/05/24 00:54:16;;;;;;;2.72;1.83;;;18.80;62.90;;;;;;4971556;28;20043;-78
2022/05/24 00:56:53;;;;;;;3.10;1.77;;;18.80;63.10;;;;;;4976487;28;20129;-78
2022/05/24 00:59:30;;;;;;;2.25;1.70;;;18.80;63.70;;;;;;4976744;28;20129;-77
2022/05/24 01:01:56;;;;;;;2.42;1.75;;;18.90;63.40;;;;;;4980270;28;20038;-77
2022/05/24 01:04:22;;;;;;;3.35;1.77;;;18.90;63.00;;;;;;4973977;28;20026;-78
2022/05/24 01:06:49;;;;;;;3.08;1.85;;;18.90;63.80;;;;;;4971750;28;20031;-77
2022/05/24 01:09:26;;;;;;;3.60;1.85;;;18.90;63.50;;;;;;4972757;28;20045;-77
2022/05/24 01:11:57;;;;;;;6.07;1.75;;;18.90;63.10;;;;;;4974742;28;20031;-78
2022/05/24 01:14:25;;;;;;;5.80;2.00;;;18.90;63.40;;;;;;4974418;28;20799;-78
2022/05/24 01:16:52;;;;;;;3.30;1.95;;;18.90;63.50;;;;;;4977945;28;20130;-77
2022/05/24 01:19:28;;;;;;;4.25;1.88;;;18.80;63.80;;;;;;4981055;28;20085;-79
2022/05/24 01:21:56;;;;;;;;;;;18.80;63.80;;;;;;4976260;28;20061;-78
2022/05/24 01:24:49;;;;;;;4.18;1.90;;;18.80;63.70;;;;;;4977298;28;20024;-77
2022/05/24 01:27:15;;;;;;;5.07;2.05;;;18.90;64.40;;;;;;4973369;28;20126;-78
2022/05/24 01:29:41;;;;;;;3.13;1.70;;;18.80;64.30;;;;;;4975101;28;20093;-77
2022/05/24 01:37:35;;;;;;;3.90;2.05;;;18.80;64.40;;;;;;4976096;28;20027;-78
2022/05/24 01:40:04;;;;;;;5.05;2.35;;;18.90;64.40;;;;;;4975033;28;20624;-77
2022/05/24 01:42:30;;;;;;;6.93;1.90;;;18.90;64.50;;;;;;4975370;28;20038;-78
2022/05/24 01:45:13;;;;;;;3.30;1.60;;;18.90;64.70;;;;;;4967757;28;20073;-78
2022/05/24 01:47:42;;;;;;;5.32;2.03;;;18.80;65.20;;;;;;4972788;28;20073;-77
2022/05/24 01:50:13;;;;;;;5.97;1.70;;;18.90;65.30;;;;;;4976883;28;20074;-78
2022/05/24 01:52:45;;;;;;;3.05;1.98;;;18.80;65.60;;;;;;4967572;28;20040;-78
2022/05/24 01:55:25;;;;;;;3.55;1.80;;;18.80;65.80;;;;;;4981419;28;20057;-78
2022/05/24 01:57:54;;;;;;;3.33;1.83;;;18.80;65.90;;;;;;4974795;28;20030;-77
2022/05/24 02:00:20;;;;;;;6.40;2.10;;;18.80;67.10;;;;;;4970909;28;20554;-78
2022/05/24 02:02:46;;;;;;;1.95;1.75;;;18.60;68.20;;;;;;4976251;28;20505;-77
2022/05/24 02:05:13;;;;;;;2.58;2.03;;;18.40;71.80;;;;;;4975003;28;20038;-78
2022/05/24 02:07:39;;;;;;;3.40;2.22;;;18.20;74.20;;;;;;4967156;28;20069;-78
2022/05/24 02:10:07;;;;;;;4.25;2.28;;;18.10;78.00;;;;;;4969587;28;20062;-78
2022/05/24 02:12:46;;;;;;;2.13;1.92;;;17.90;79.40;;;;;;4968431;28;20427;-78
2022/05/24 02:15:19;;;;;;;3.20;1.80;;;17.80;80.10;;;;;;4971441;28;20031;-78
2022/05/24 02:18:14;;;;;;;4.78;2.70;;;17.70;81.00;;;;;;4971220;28;20097;-78
2022/05/24 02:20:43;;;;;;;5.72;2.30;;;17.60;82.60;;;;;;4972149;28;20067;-78
2022/05/24 02:23:11;;;;;;;4.32;2.30;;;17.50;83.30;;;;;;4971601;28;20161;-78
2022/05/24 02:25:49;;;;;;;3.15;2.20;;;17.50;84.00;;;;;;4969793;28;20487;-78
2022/05/24 02:28:17;;;;;;;3.78;2.42;;;17.40;83.00;;;;;;4969346;28;20035;-78
2022/05/24 02:30:47;;;;;;;4.20;2.42;;;17.30;85.30;;;;;;4973324;28;20049;-78
2022/05/24 02:33:13;;;;;;;4.05;2.67;;;17.20;86.30;;;;;;4968487;28;20137;-78
2022/05/24 02:35:39;;;;;;;3.30;2.90;;;17.10;87.90;;;;;;4977133;28;20026;-78
2022/05/24 02:38:05;;;;;;;5.40;2.70;;;17.00;89.40;;;;;;4975193;28;20030;-78
2022/05/24 02:43:15;;;;;;;4.53;3.30;;;16.90;90.90;;;;;;4970792;28;20493;-79
2022/05/24 02:45:41;;;;;;;4.95;2.63;;;16.80;91.30;;;;;;4969270;28;20159;-78
2022/05/24 02:48:08;;;;;;;5.15;3.00;;;16.80;91.70;;;;;;4971517;28;20477;-78
2022/05/24 02:50:34;;;;;;;6.90;3.03;;;16.70;92.00;;;;;;4966509;28;20142;-78
2022/05/24 02:52:59;;;;;;;4.32;3.17;;;16.70;92.30;;;;;;4973253;28;20644;-78
2022/05/24 02:55:28;;;;;;;3.30;2.97;;;16.70;92.60;;;;;;4979450;28;20101;-78
2022/05/24 02:57:54;;;;;;;2.92;2.72;;;16.70;92.80;;;;;;4973828;28;20506;-78
2022/05/24 03:00:23;;;;;;;5.75;2.67;;;16.70;92.90;;;;;;4974860;28;20455;-78
2022/05/24 03:02:49;;;;;;;4.65;3.10;;;16.60;93.20;;;;;;4976432;28;20038;-78
2022/05/24 03:05:21;;;;;;;5.10;3.95;;;16.60;93.40;;;;;;4974936;28;20038;-78
2022/05/24 03:10:32;;;;;;;4.95;3.58;;;16.60;93.80;;;;;;4977277;28;20026;-78
2022/05/24 03:15:44;;;;;;;7.25;3.80;;;16.50;94.60;;;;;;4971493;28;20038;-78
2022/05/24 03:18:12;;;;;;;5.18;3.85;;;16.40;94.90;;;;;;4977808;28;20062;-78
2022/05/24 03:20:38;;;;;;;6.60;4.30;;;16.50;95.20;;;;;;4975191;28;20880;-78
2022/05/24 03:23:04;;;;;;;3.38;3.08;;;16.50;95.40;;;;;;4971847;28;20031;-77
2022/05/24 03:25:32;;;;;;;5.20;4.22;;;16.50;95.60;;;;;;4975066;28;20529;-77
2022/05/24 03:28:03;;;;;;;5.13;3.90;;;16.40;95.70;;;;;;4970265;28;20027;-78
2022/05/24 03:30:30;;;;;;;6.15;4.28;;;16.50;95.80;;;;;;4971370;28;20062;-78
2022/05/24 03:32:56;;;;;;;8.13;4.18;;;16.50;96.00;;;;;;4969068;28;20039;-78
2022/05/24 03:35:22;;;;;;;6.45;4.07;;;16.50;96.20;;;;;;4977151;28;20061;-78
2022/05/24 03:37:48;;;;;;;5.78;4.18;;;16.60;96.40;;;;;;4975530;28;20038;-78
2022/05/24 03:40:14;;;;;;;6.10;4.78;;;16.60;96.50;;;;;;4976399;28;20100;-78
2022/05/24 03:42:40;;;;;;;6.38;4.18;;;16.60;96.60;;;;;;4973371;28;20026;-78
2022/05/24 03:45:08;;;;;;;8.02;5.72;;;16.70;96.80;;;;;;4971907;28;20093;-78
2022/05/24 03:47:36;;;;;;;7.80;4.85;;;16.80;97.00;;;;;;4974068;28;20970;-78
2022/05/24 03:50:02;;;;;;;6.15;4.45;;;16.80;96.90;;;;;;4972626;28;20084;-77
2022/05/24 03:52:28;;;;;;;8.95;4.88;;;16.90;97.00;;;;;;4972555;28;20068;-78
2022/05/24 03:54:54;;;;;;;7.15;4.80;;;16.90;96.60;;;;;;4973311;28;20057;-77
2022/05/24 04:00:05;;;;;;;4.55;3.92;;;17.00;96.40;;;;;;4968443;28;20133;-78
2022/05/24 04:02:38;;;;;;;5.22;4.65;;;17.00;96.30;;;;;;4973409;28;20031;-78
2022/05/24 04:05:04;;;;;;;9.35;5.25;;;17.10;96.30;;;;;;4969450;28;20228;-78
2022/05/24 04:07:30;;;;;;;7.60;4.88;;;17.20;96.20;;;;;;4971806;28;20022;-78
2022/05/24 04:09:56;;;;;;;8.38;5.07;;;17.30;96.20;;;;;;4979628;28;20566;-78
2022/05/24 04:12:22;;;;;;;7.63;5.18;;;17.30;96.20;;;;;;4977316;28;20143;-78
2022/05/24 04:14:47;;;;;;;10.85;5.65;;;17.30;96.40;;;;;;4970097;28;20031;-78
2022/05/24 04:17:13;;;;;;;8.07;5.13;;;17.40;96.40;;;;;;4979386;28;20271;-78
2022/05/24 04:19:39;;;;;;;5.95;4.97;;;17.40;96.50;;;;;;4970392;28;20027;-77
2022/05/24 04:22:05;;;;;;;7.18;5.40;;;17.50;96.70;;;;;;4977429;28;20041;-77
2022/05/24 04:24:31;;;;;;;7.15;6.28;;;17.50;97.10;;;;;;4969544;28;20055;-77
2022/05/24 04:26:57;;;;;;;7.97;6.30;;;17.60;97.20;;;;;;4967837;28;20034;-77
2022/05/24 04:29:22;;;;;;;7.70;5.88;;;17.70;97.30;;;;;;4973254;28;20679;-78
2022/05/24 04:31:48;;;;;;;6.35;5.20;;;17.80;97.50;;;;;;4970800;28;20097;-77
2022/05/24 04:34:14;;;;;;;7.88;5.50;;;17.80;97.40;;;;;;4977607;28;20502;-77
2022/05/24 04:36:40;;;;;;;6.72;5.47;;;17.90;97.20;;;;;;4968871;28;20110;-77
2022/05/24 04:39:06;;;;;;;4.75;4.22;;;17.90;97.20;;;;;;4972390;28;20037;-77
2022/05/24 04:44:15;;;;;;;5.20;4.45;;;18.00;96.60;;;;;;4972622;28;20239;-77
2022/05/24 04:49:25;;;;;;;5.25;3.90;;;17.90;96.00;;;;;;4973964;28;20045;-78
2022/05/24 04:51:54;;;;;;;4.32;3.92;;;17.90;96.00;;;;;;4970308;28;20030;-77
2022/05/24 04:54:21;;;;;;;4.65;4.15;;;17.80;96.00;;;;;;4967240;28;20072;-77
2022/05/24 04:56:47;;;;;;;4.38;3.97;;;17.80;96.10;;;;;;4976145;28;20552;-77
2022/05/24 04:59:16;;;;;;;3.80;3.50;;;17.70;96.20;;;;;;4973920;28;20037;-77
2022/05/24 05:01:42;;;;;;;4.43;3.75;;;17.70;96.20;;;;;;4968616;28;20038;-77
2022/05/24 05:04:08;;;;;;;4.22;3.83;;;17.70;96.20;;;;;;4967646;28;20042;-76
2022/05/24 05:06:34;;;;;;;4.68;3.50;;;17.60;96.30;;;;;;4970104;28;20388;-77
2022/05/24 05:09:00;;;;;;;5.07;4.15;;;17.60;96.20;;;;;;4968780;28;20038;-77
2022/05/24 05:11:25;;;;;;;4.40;3.45;;;17.60;96.30;;;;;;4976757;28;20072;-77
2022/05/24 05:13:51;;;;;;;4.05;3.63;;;17.60;96.60;;;;;;4969939;28;20516;-76
2022/05/24 05:16:18;;;;;;;5.50;4.07;;;17.60;96.30;;;;;;4973224;28;20094;-77
2022/05/24 05:18:43;;;;;;;4.32;3.63;;;17.60;96.10;;;;;;4974746;28;20034;-77
2022/05/24 05:21:10;;;;;;;4.10;3.30;;;17.60;96.10;;;;;;4971177;28;20640;-77
2022/05/24 05:23:35;;;;;;;4.63;4.13;;;17.60;96.00;;;;;;4971241;28;20026;-78
2022/05/24 05:26:01;;;;;;;6.15;4.85;;;17.70;95.80;;;;;;4972085;28;20031;-77
2022/05/24 05:28:27;;;;;;;5.68;4.30;;;17.70;95.50;;;;;;4977452;28;20035;-77
2022/05/24 05:33:37;;;;;;;5.43;3.78;;;17.80;94.80;;;;;;4970000;28;20573;-77
2022/05/24 05:36:03;;;;;;;4.82;4.20;;;17.90;94.60;;;;;;4968919;28;20035;-78
2022/05/24 05:38:31;;;;;;;6.47;4.85;;;17.90;94.50;;;;;;4965761;28;20035;-77
2022/05/24 05:40:58;;;;;;;4.60;4.07;;;18.00;94.00;;;;;;4969404;28;20479;-77
2022/05/24 05:43:24;;;;;;;4.60;4.20;;;18.00;93.70;;;;;;4966287;28;20606;-77
2022/05/24 05:45:54;;;;;;;5.38;3.75;;;18.00;93.50;;;;;;4973899;28;20089;-77
2022/05/24 05:48:21;;;;;;;4.93;4.10;;;18.00;93.40;;;;;;4971297;28;20038;-77
2022/05/24 05:50:47;;;;;;;4.93;3.95;;;18.00;93.20;;;;;;4970419;28;20126;-77
2022/05/24 05:53:14;;;;;;;4.95;3.78;;;18.00;93.00;;;;;;4965554;28;20089;-77
2022/05/24 05:55:43;;;;;;;5.18;4.05;;;18.00;93.10;;;;;;4969980;28;20780;-77
2022/05/24 05:58:10;;;;;;;5.97;3.72;;;18.00;93.00;;;;;;4972404;28;20049;-78
2022/05/24 06:00:37;;;;;;;5.32;3.45;;;18.00;92.90;;;;;;4969961;28;20139;-78
2022/05/24 06:03:02;;;;;;;4.82;3.90;;;18.00;92.70;;;;;;4969847;28;20093;-77
2022/05/24 06:05:28;;;;;;;7.18;3.28;;;18.00;92.60;;;;;;4970846;28;20397;-78
2022/05/24 06:07:55;;;;;;;5.50;2.90;;;18.00;92.40;;;;;;4975143;28;20049;-77
2022/05/24 06:10:21;;;;;;;4.63;3.10;;;18.10;92.40;;;;;;4970622;28;20072;-78
2022/05/24 06:12:47;;;;;;;2.97;2.65;;;18.20;92.30;;;;;;4968860;28;20034;-77
2022/05/24 06:15:13;;;;;;;4.13;2.80;;;18.30;92.20;;;;;;4972976;28;20064;-79
2022/05/24 06:17:48;;;;;;;5.38;2.92;;;18.30;92.00;;;;;;4973796;28;20152;-79
2022/05/24 06:20:22;;;;;;;2.60;2.28;;;18.30;91.90;;;;;;4975816;28;20058;-78
2022/05/24 06:22:49;;;;;;;5.95;3.00;;;18.30;91.90;;;;;;4971706;28;20030;-76
2022/05/24 06:25:16;;;;;;;5.63;3.03;;;18.30;92.00;;;;;;4968098;28;20038;-75
2022/05/24 06:27:42;;;;;;;5.78;3.40;;;18.60;92.00;;;;;;4974731;28;20124;-79
2022/05/24 06:30:11;;;;;;;3.63;2.95;;;18.90;91.40;;;;;;4974747;28;20072;-79
2022/05/24 06:32:37;;;;;;;8.75;2.75;;;19.50;90.30;;;;;;4973285;28;20053;-79
2022/05/24 06:35:05;;;;;;;3.30;3.00;;;20.10;88.90;;;;;;4977052;28;20034;-79
2022/05/24 06:37:31;;;;;;;4.03;2.83;;;20.60;86.70;;;;;;4972702;28;20213;-79
2022/05/24 06:39:57;;;;;;;3.22;2.78;;;20.90;83.60;;;;;;4973550;28;20030;-79
2022/05/24 06:42:23;;;;;;;4.28;3.13;;;21.00;82.80;;;;;;4979598;28;20027;-79
2022/05/24 06:44:50;;;;;;;4.45;3.10;;;21.10;81.40;;;;;;4975000;28;20065;-75
2022/05/24 06:47:15;;;;;;;3.40;2.47;;;21.20;81.00;;;;;;4966224;28;20386;-72
2022/05/24 06:49:41;;;;;;;4.03;2.42;;;21.20;80.90;;;;;;4974428;28;20367;-74
2022/05/24 06:52:08;;;;;;;3.42;2.47;;;21.30;81.00;;;;;;4970039;28;20521;-72
2022/05/24 06:54:35;;;;;;;7.07;2.80;;;21.50;80.40;;;;;;4972555;28;20022;-73
2022/05/24 06:57:02;;;;;;;4.15;2.90;;;21.50;79.50;;;;;;4974769;28;20116;-73
2022/05/24 07:02:25;;;;;;;6.32;2.13;;;21.20;78.50;;;;;;4971091;28;20026;-73
2022/05/24 07:04:59;;;;;;;2.63;2.08;;;21.00;79.00;;;;;;4973009;28;20022;-72
2022/05/24 07:07:25;;;;;;;2.65;1.95;;;21.00;79.90;;;;;;4975400;28;20022;-73
2022/05/24 07:09:52;;;;;;;3.50;2.30;;;21.00;77.40;;;;;;4968387;28;20031;-73
2022/05/24 07:12:21;;;;;;;3.80;2.40;;;21.30;76.70;;;;;;4968681;28;20027;-73
2022/05/24 07:14:48;;;;;;;5.38;2.22;;;21.70;72.80;;;;;;4967797;28;20084;-72
2022/05/24 07:17:14;;;;;;;3.30;1.88;;;22.10;73.00;;;;;;4964345;28;20496;-73
2022/05/24 07:19:40;;;;;;;4.80;2.50;;;22.30;72.20;;;;;;4971557;28;20030;-76
2022/05/24 07:22:07;;;;;;;2.58;1.77;;;22.30;72.90;;;;;;4970044;28;20058;-77
2022/05/24 07:24:33;;;;;;;6.10;2.40;;;22.20;72.20;;;;;;4970772;28;20034;-77
2022/05/24 07:27:00;;;;;;;3.30;2.22;;;22.10;70.40;;;;;;4970990;28;20029;-71
2022/05/24 07:29:25;;;;;;;4.55;2.47;;;22.00;69.10;;;;;;4973269;28;20070;-75
2022/05/24 07:31:51;;;;;;;2.97;2.10;;;21.70;70.40;;;;;;4970701;28;20105;-74
2022/05/24 07:34:17;;;;;;;4.70;2.15;;;21.30;72.00;;;;;;4965863;28;20039;-76
2022/05/24 07:36:43;;;;;;;2.72;1.50;;;20.90;71.80;;;;;;4979768;28;20044;-75
2022/05/24 07:39:09;;;;;;;2.85;2.00;;;20.60;72.70;;;;;;4969738;28;20089;-76
2022/05/24 07:47:09;;;;;;;3.40;1.50;;;19.90;75.40;;;;;;4974940;28;20042;-76
2022/05/24 07:49:36;;;;;;;2.78;1.23;;;19.80;76.10;;;;;;4973943;28;20054;-76
2022/05/24 07:52:02;;;;;;;1.20;1.10;;;19.80;76.40;;;;;;4973967;28;20143;-76
2022/05/24 07:54:27;;;;;;;2.25;1.45;;;19.70;76.00;;;;;;4977602;28;20030;-76
2022/05/24 07:56:53;;;;;;;5.50;1.63;;;19.60;76.80;;;;;;4975225;28;20092;-76
2022/05/24 07:59:19;;;;;;;3.75;1.80;;;19.50;77.70;;;;;;4963818;28;20753;-76
2022/05/24 08:01:45;;;;;;;2.47;1.50;;;19.40;77.90;;;;;;4976270;28;20122;-76
2022/05/24 08:04:10;;;;;;;2.38;1.80;;;19.40;79.00;;;;;;4968856;28;20043;-76
2022/05/24 08:06:36;;;;;;;1.77;1.33;;;19.50;78.40;;;;;;4967806;28;20069;-77
2022/05/24 08:09:03;;;;;;;1.92;1.50;;;19.70;78.00;;;;;;4974232;28;20038;-78
2022/05/24 08:11:29;;;;;;;3.10;1.48;;;20.10;77.50;;;;;;4977047;28;20137;-77
2022/05/24 08:13:58;;;;;;;1.63;1.30;;;20.70;76.00;;;;;;4974917;28;20163;-77
2022/05/24 08:16:25;;;;;;;4.05;1.33;;;21.20;73.20;;;;;;4970798;28;20026;-78
2022/05/24 08:18:50;;;;;;;2.47;1.02;;;21.70;70.10;;;;;;4972285;28;20029;-76
2022/05/24 08:21:16;;;;;;;1.10;1.00;;;22.20;67.90;;;;;;4968932;28;20034;-76
2022/05/24 08:23:42;;;;;;;3.35;0.73;;;22.40;65.00;;;;;;4977401;28;20038;-76
2022/05/24 08:26:08;;;;;;;3.65;1.23;;;22.60;64.70;;;;;;4974919;28;20046;-73
2022/05/24 08:28:34;;;;;;;1.27;1.05;;;22.90;63.50;;;;;;4966671;28;20035;-75
2022/05/24 08:31:00;;;;;;;4.30;0.95;;;23.20;63.70;;;;;;4971398;28;20130;-73
2022/05/24 08:33:28;;;;;;;0.80;0.70;;;23.40;62.30;;;;;;4967765;28;20039;-73
2022/05/24 08:35:54;;;;;;;0.82;0.82;;;23.40;60.00;;;;;;4968664;28;20089;-72
2022/05/24 08:38:21;;;;;;;0.77;0.73;;;23.40;60.30;;;;;;4975947;28;20041;-72
2022/05/24 08:40:49;;;;;;;1.38;0.65;;;23.40;60.20;;;;;;4968470;28;20034;-72
2022/05/24 08:43:39;;;;;;;1.98;1.00;;;23.50;59.10;;;;;;4971960;28;20089;-73
2022/05/24 08:49:09;;;;;;;0.70;0.60;;;23.40;59.30;;;;;;4978960;28;20058;-76
2022/05/24 08:51:51;;;;;;;1.00;0.82;;;23.30;59.80;;;;;;4973871;28;20031;-77
2022/05/24 08:54:25;;;;;;;0.80;0.70;;;23.30;57.80;;;;;;4982142;28;20038;-77
2022/05/24 08:57:03;;;;;;;3.13;0.93;;;23.40;58.70;;;;;;4977903;28;20062;-77
2022/05/24 08:59:37;;;;;;;1.20;0.90;;;23.30;57.50;;;;;;4982882;28;20037;-77
2022/05/24 09:02:05;;;;;;;0.55;0.55;;;23.40;57.90;;;;;;4982036;28;20402;-77
2022/05/24 09:04:31;;;;;;;1.90;0.88;;;23.60;58.80;;;;;;4979632;28;20081;-75
2022/05/24 09:07:00;;;;;;;0.95;0.80;;;23.70;56.90;;;;;;4968026;28;20049;-76
2022/05/24 09:09:45;;;;;;;2.75;0.70;;;23.70;58.00;;;;;;4970977;28;20026;-79
2022/05/24 09:12:39;;;;;;;1.00;0.90;;;23.80;59.00;;;;;;4975715;28;20117;-79
2022/05/24 09:15:30;;;;;;;2.38;0.85;;;23.90;57.90;;;;;;4975659;28;20069;-79
2022/05/24 09:18:09;;;;;;;1.73;0.90;;;23.70;58.80;;;;;;4971207;28;20161;-72
2022/05/24 09:20:40;;;;;;;1.10;0.80;;;23.40;57.90;;;;;;4973276;28;20030;-76
2022/05/24 09:23:22;;;;;;;1.20;0.95;;;23.30;59.00;;;;;;4974334;28;20049;-71
2022/05/24 09:26:09;;;;;;;1.60;0.93;;;23.30;59.30;;;;;;4971798;28;20049;-75
2022/05/24 09:28:47;;;;;;;2.90;0.90;;;23.40;58.20;;;;;;4971585;28;20041;-77
2022/05/24 09:31:36;;;;;;;1.23;0.80;;;23.20;58.10;;;;;;4973309;28;20888;-78
2022/05/24 09:34:09;;;;;;;1.88;1.05;;;23.10;58.20;;;;;;4971342;28;20034;-79
2022/05/24 09:36:40;;;;;;;1.50;1.10;;;23.10;57.90;;;;;;4973996;28;20655;-79
2022/05/24 09:39:35;;;;;;;0.82;0.73;;;22.80;58.50;;;;;;4972153;28;20077;-79
2022/05/24 09:42:03;;;;;;;1.75;1.20;;;22.90;59.00;;;;;;4970184;28;20034;-79
2022/05/24 09:44:44;;;;;;;1.20;0.95;;;23.20;58.20;;;;;;4971867;28;20494;-79
2022/05/24 09:47:25;;;;;;;1.50;0.88;;;23.40;58.80;;;;;;4969941;28;20494;-73
2022/05/24 09:49:51;;;;;;;1.30;0.90;;;23.60;58.30;;;;;;4964864;28;20525;-70
2022/05/24 09:52:17;;;;;;;1.27;1.02;;;24.00;57.00;;;;;;4971044;28;20039;-80
2022/05/24 09:55:11;;;;;;;0.65;0.65;;;24.40;55.50;;;;;;4976081;28;20388;-80
2022/05/24 09:57:37;;;;;;;1.63;0.80;;;24.50;56.20;;;;;;4975326;28;20603;-69
2022/05/24 10:00:23;;;;;;;1.73;0.88;;;24.40;55.90;;;;;;4966090;28;20141;-80
2022/05/24 10:03:02;;;;;;;;;;;24.10;56.90;;;;;;4968918;28;20085;-80
2022/05/24 10:05:29;;;;;;;1.92;1.00;;;23.80;56.40;;;;;;4977603;28;20000;-79
2022/05/24 10:08:04;;;;;;;1.40;1.00;;;23.80;57.60;;;;;;4977223;28;20495;-80
2022/05/24 10:10:43;;;;;;;2.92;1.65;;;23.70;54.70;;;;;;4975128;28;20109;-79
2022/05/24 10:13:36;;;;;;;1.45;1.20;;;23.70;56.70;;;;;;4974133;28;20041;-79
2022/05/24 10:16:57;;;;;;;1.05;0.95;;;23.80;56.70;;;;;;4974990;28;20766;-80
2022/05/24 10:19:32;;;;;;;1.35;1.02;;;24.10;57.00;;;;;;4916686;29;20030;-80
2022/05/24 10:22:25;;;;;;;2.13;0.70;;;24.20;55.80;;;;;;4958401;28;20107;-78
2022/05/24 10:25:10;;;;;;;1.27;0.80;;;24.20;56.00;;;;;;4968941;28;20038;-72
2022/05/24 10:28:04;;;;;;;1.63;1.30;;;24.10;55.40;;;;;;4972736;28;20081;-78
2022/05/24 10:30:54;;;;;;;1.45;0.95;;;24.00;56.60;;;;;;4966688;28;20027;-78
2022/05/24 10:39:45;;;;;;;0.77;0.73;;;24.20;53.20;;;;;;4974447;28;20035;-67
2022/05/24 10:42:48;;;;;;;1.75;0.70;;;24.40;53.90;;;;;;4973835;28;20125;-78
2022/05/24 10:45:21;;;;;;;0.80;0.80;;;25.00;51.80;;;;;;4978085;28;21137;-75
2022/05/24 10:48:08;;;;;;;1.20;0.80;;;25.40;51.60;;;;;;4971314;28;20489;-70
2022/05/24 10:50:48;;;;;;;1.40;0.70;;;25.60;51.30;;;;;;4973678;28;20635;-78
2022/05/24 10:53:27;;;;;;;1.10;0.68;;;25.80;50.90;;;;;;4979566;28;20137;-78
2022/05/24 10:56:13;;;;;;;2.10;0.70;;;26.20;49.20;;;;;;4976086;28;20026;-79
2022/05/24 10:58:42;;;;;;;0.60;0.60;;;26.30;49.40;;;;;;4980052;28;20037;-79
2022/05/24 11:01:21;;;;;;;1.33;0.70;;;26.30;49.50;;;;;;4972410;28;20034;-78
2022/05/24 11:03:52;;;;;;;0.95;0.70;;;26.00;51.00;;;;;;4972897;28;20751;-78
2022/05/24 11:06:27;;;;;;;1.17;0.90;;;26.00;50.10;;;;;;4986979;28;20108;-78
2022/05/24 11:09:05;;;;;;;1.00;0.68;;;26.10;50.60;;;;;;4976147;28;20050;-78
2022/05/24 11:11:43;;;;;;;0.60;0.52;;;25.90;50.70;;;;;;4974850;28;20030;-77
2022/05/24 11:14:23;;;;;;;0.77;0.60;;;25.60;51.60;;;;;;4974054;28;20046;-77
2022/05/24 11:16:51;;;;;;;2.33;0.70;;;25.20;54.30;;;;;;4974492;28;20439;-70
2022/05/24 11:19:24;;;;;;;1.13;0.77;;;24.90;52.00;;;;;;4977947;28;20034;-76
2022/05/24 11:22:24;;;;;;;3.42;0.73;;;24.50;52.90;;;;;;4982577;28;20027;-76
2022/05/24 11:24:52;;;;;;;1.70;1.00;;;24.10;53.00;;;;;;4976033;28;20057;-70
2022/05/24 11:27:26;;;;;;;1.73;0.70;;;23.90;54.80;;;;;;4973648;28;20411;-78
2022/05/24 11:30:14;;;;;;;1.27;0.80;;;23.90;55.40;;;;;;4980906;28;20026;-80
2022/05/24 11:32:43;;;;;;;1.05;0.80;;;23.90;55.90;;;;;;4983300;28;20108;-78
2022/05/24 11:35:18;;;;;;;1.48;0.70;;;24.00;55.90;;;;;;4980610;28;20073;-73
2022/05/24 11:37:52;;;;;;;0.90;0.70;;;24.20;56.00;;;;;;4973708;28;20101;-75
2022/05/24 11:40:48;;;;;;;0.60;0.60;;;24.30;54.50;;;;;;4989511;28;20030;-71
2022/05/24 11:43:38;;;;;;;0.98;0.98;;;24.10;54.60;;;;;;4978643;28;20600;-76
2022/05/24 11:46:30;;;;;;;1.00;0.77;;;23.90;56.50;;;;;;4982029;28;20051;-75
2022/05/24 11:48:59;;;;;;;0.98;0.93;;;23.70;57.40;;;;;;4974361;28;20038;-67
2022/05/24 11:51:48;;;;;;;1.58;1.20;;;23.50;58.50;;;;;;4981248;28;20049;-76
2022/05/24 11:54:17;;;;;;;2.15;1.10;;;23.20;58.30;;;;;;4972328;28;20659;-76
2022/05/24 11:57:16;;;;;;;1.73;1.38;;;23.00;57.10;;;;;;4977708;28;20030;-67
2022/05/24 11:59:48;;;;;;;1.50;1.40;;;23.00;57.90;;;;;;4973637;28;20498;-78
2022/05/24 12:02:27;;;;;;;2.72;1.60;;;23.20;57.70;;;;;;4976331;28;20133;-73
2022/05/24 12:08:30;;;;;;;1.50;1.40;;;23.20;56.60;;;;;;4971519;28;20050;-76
2022/05/24 12:11:32;;;;;;;5.70;1.67;;;23.00;57.60;;;;;;4982033;28;20051;-76
2022/05/24 12:14:15;;;;;;;3.53;1.25;;;22.80;60.30;;;;;;4976726;28;20834;-76
2022/05/24 12:16:53;;;;;;;1.60;1.50;;;22.70;58.00;;;;;;4972721;28;20045;-67
2022/05/24 12:19:43;;;;;;;1.40;1.23;;;22.60;57.20;;;;;;4978668;28;20721;-73
2022/05/24 12:22:13;;;;;;;1.42;1.33;;;22.70;56.10;;;;;;4975875;28;20506;-73
2022/05/24 12:24:38;;;;;;;1.85;1.20;;;22.60;56.50;;;;;;4975349;28;20117;-74
2022/05/24 12:27:19;;;;;;;1.27;1.17;;;22.60;57.40;;;;;;4974155;28;20125;-71
2022/05/24 12:29:59;;;;;;;1.50;0.98;;;22.60;57.10;;;;;;4976456;28;20130;-72
2022/05/24 12:32:30;;;;;;;1.83;1.10;;;22.80;56.60;;;;;;4977998;28;20113;-72
2022/05/24 12:35:06;;;;;;;1.30;1.20;;;23.00;55.70;;;;;;4970243;28;20434;-73
2022/05/24 12:37:33;;;;;;;;;;;23.20;56.30;;;;;;4980880;28;20030;-71
2022/05/24 12:40:12;;;;;;;2.22;1.00;;;23.60;55.30;;;;;;4974335;28;19916;-70
2022/05/24 12:42:51;;;;;;;2.42;1.05;;;24.40;54.40;;;;;;4976033;28;20501;-73
2022/05/24 12:45:27;;;;;;;2.90;1.33;;;24.80;52.90;;;;;;4975661;28;20035;-72
2022/05/24 12:47:54;;;;;;;2.53;1.90;;;24.80;52.70;;;;;;4975606;28;20529;-72
2022/05/24 12:50:27;;;;;;;1.50;1.40;;;24.80;52.20;;;;;;4974701;28;20026;-72
2022/05/24 12:53:04;;;;;;;1.50;1.20;;;24.90;52.40;;;;;;4975036;28;20042;-72
2022/05/24 12:58:29;;;;;;;1.30;1.20;;;24.80;52.90;;;;;;4974559;28;20872;-72
2022/05/24 13:01:12;;;;;;;0.90;0.90;;;24.80;53.50;;;;;;4981635;28;20402;-70
2022/05/24 13:04:03;;;;;;;1.13;1.02;;;24.70;54.40;;;;;;4977146;28;20038;-69
2022/05/24 13:06:42;;;;;;;2.35;1.55;;;24.50;55.20;;;;;;4978016;28;20475;-72
2022/05/24 13:09:32;;;;;;;1.25;1.15;;;24.40;56.00;;;;;;4973540;28;20133;-67
2022/05/24 13:12:08;;;;;;;2.83;1.63;;;24.30;55.90;;;;;;4973082;28;20026;-66
2022/05/24 13:15:00;;;;;;;1.30;1.20;;;24.20;55.70;;;;;;4977592;28;20035;-66
2022/05/24 13:17:30;;;;;;;2.25;1.45;;;24.20;56.50;;;;;;4971728;28;20118;-69
2022/05/24 13:20:10;;;;;;;1.50;1.30;;;24.20;56.50;;;;;;4978259;28;20042;-68
2022/05/24 13:22:52;;;;;;;3.25;1.65;;;24.10;56.80;;;;;;4979723;28;20485;-66
2022/05/24 13:25:21;;;;;;;1.88;1.50;;;23.80;58.10;;;;;;4976201;28;20080;-70
2022/05/24 13:27:59;;;;;;;2.13;1.70;;;23.70;59.80;;;;;;4973448;28;20030;-82
2022/05/24 13:33:35;;;;;;;1.88;1.77;;;23.10;62.50;;;;;;4979472;28;20035;-76
2022/05/24 13:36:12;;;;;;;2.22;1.63;;;22.60;64.50;;;;;;4979926;28;20030;-78
2022/05/24 13:38:40;;;;;;;2.80;1.50;;;22.30;67.20;;;;;;4981949;28;20053;-74
2022/05/24 13:41:08;;;;;;;1.73;1.55;;;22.30;66.60;;;;;;4980239;28;20411;-75
2022/05/24 13:43:39;;;;;;;1.95;1.33;;;22.50;66.60;;;;;;4974479;28;20034;-70
2022/05/24 13:46:20;;;;;;;1.00;1.00;;;22.60;64.50;;;;;;4973225;28;20077;-75
2022/05/24 13:48:55;;;;;;;1.13;1.05;;;22.60;63.70;;;;;;4970444;28;20034;-75
2022/05/24 13:51:39;;;;;;;1.80;0.95;;;22.50;63.30;;;;;;4972971;28;20046;-68
2022/05/24 13:54:04;;;;;;;1.50;1.00;;;22.40;63.70;;;;;;4970295;28;20042;-79
2022/05/24 13:56:37;;;;;;;1.98;1.30;;;22.30;62.90;;;;;;4978637;28;20041;-78
2022/05/24 13:59:03;;;;;;;0.95;0.70;;;22.60;62.60;;;;;;4979570;28;20113;-78
2022/05/24 14:01:41;;;;;;;0.82;0.77;;;22.80;60.10;;;;;;4982034;28;20141;-79
2022/05/24 14:04:16;;;;;;;1.20;0.98;;;23.00;59.70;;;;;;4978598;28;20046;-79